Time;durP1;ratioP1;P1;durP2;ratioP2;P2;SDS_P1;SDS_P2;PMS_P1;PMS_P2;Temp;Humidity;BMP_temperature;BMP_pressure;BME280_temperature;BME280_humidity;BME280_pressure;Samples;Min_cycle;Max_cycle;Signal;HPM_P1;HPM_P2
2022/02/23 00:01:10;;;;;;;9.38;3.67;;;;;;;;;;2068545;28;20030;-69
2022/02/23 00:02:29;;;;;;;7.07;3.67;;;;;;;;;;2066647;28;20189;-69
2022/02/23 00:03:48;;;;;;;6.53;3.92;;;;;;;;;;2066947;28;20030;-68
2022/02/23 00:05:07;;;;;;;6.30;3.72;;;;;;;;;;2067769;28;20034;-67
2022/02/23 00:06:26;;;;;;;5.75;3.30;;;;;;;;;;2068363;28;20117;-68
2022/02/23 00:07:45;;;;;;;5.70;3.47;;;;;;;;;;2068274;28;20492;-66
2022/02/23 00:09:04;;;;;;;3.50;3.20;;;;;;;;;;2068081;28;20030;-67
2022/02/23 00:10:23;;;;;;;5.18;3.28;;;;;;;;;;2066501;28;20022;-66
2022/02/23 00:11:42;;;;;;;3.55;3.20;;;;;;;;;;2065989;28;20030;-67
2022/02/23 00:13:00;;;;;;;3.72;3.25;;;;;;;;;;2066185;28;20396;-66
2022/02/23 00:14:19;;;;;;;6.32;3.30;;;;;;;;;;2068336;28;20030;-67
2022/02/23 00:15:38;;;;;;;4.85;3.42;;;;;;;;;;2068454;28;20046;-66
2022/02/23 00:16:57;;;;;;;6.53;3.03;;;;;;;;;;2067326;28;20029;-68
2022/02/23 00:18:16;;;;;;;7.53;3.67;;;;;;;;;;2067204;28;20030;-66
2022/02/23 00:19:35;;;;;;;4.88;3.20;;;;;;;;;;2068364;28;20468;-67
2022/02/23 00:20:54;;;;;;;6.50;3.80;;;;;;;;;;2067990;28;20034;-64
2022/02/23 00:22:14;;;;;;;8.98;3.20;;;;;;;;;;2068239;28;20031;-67
2022/02/23 00:23:33;;;;;;;7.53;3.38;;;;;;;;;;2068962;28;20903;-67
2022/02/23 00:24:51;;;;;;;9.60;3.65;;;;;;;;;;2067784;28;20088;-67
2022/02/23 00:26:12;;;;;;;8.80;3.90;;;;;;;;;;2068014;28;20059;-67
2022/02/23 00:27:31;;;;;;;5.47;3.53;;;;;;;;;;2067521;28;20038;-67
2022/02/23 00:28:49;;;;;;;4.90;3.30;;;;;;;;;;2068242;28;20034;-67
2022/02/23 00:30:08;;;;;;;2.92;2.63;;;;;;;;;;2066410;28;20042;-67
2022/02/23 00:31:27;;;;;;;4.05;2.70;;;;;;;;;;2066998;28;20039;-67
2022/02/23 00:32:47;;;;;;;6.93;3.22;;;;;;;;;;2066074;28;20519;-66
2022/02/23 00:34:06;;;;;;;4.95;3.30;;;;;;;;;;2068240;28;20057;-67
2022/02/23 00:35:25;;;;;;;7.20;2.97;;;;;;;;;;2066238;28;20439;-67
2022/02/23 00:36:44;;;;;;;4.35;3.13;;;;;;;;;;2066534;28;20461;-67
2022/02/23 00:38:03;;;;;;;5.80;3.20;;;;;;;;;;2067731;28;20019;-68
2022/02/23 00:39:23;;;;;;;9.98;3.30;;;;;;;;;;2067712;28;20038;-67
2022/02/23 00:40:42;;;;;;;6.72;3.63;;;;;;;;;;2067057;28;20031;-66
2022/02/23 00:42:01;;;;;;;3.50;3.20;;;;;;;;;;2067713;28;20038;-67
2022/02/23 00:43:20;;;;;;;4.85;3.22;;;;;;;;;;2067648;28;20472;-66
2022/02/23 00:44:39;;;;;;;6.18;3.35;;;;;;;;;;2066467;28;20029;-66
2022/02/23 00:45:58;;;;;;;7.30;3.40;;;;;;;;;;2068112;28;20034;-67
2022/02/23 00:47:17;;;;;;;5.47;3.38;;;;;;;;;;2067478;28;20030;-67
2022/02/23 00:48:36;;;;;;;5.70;3.35;;;;;;;;;;2065852;28;20062;-67
2022/02/23 00:49:55;;;;;;;4.30;3.47;;;;;;;;;;2066281;28;20038;-66
2022/02/23 00:51:13;;;;;;;6.20;3.53;;;;;;;;;;2067843;28;20038;-67
2022/02/23 00:52:32;;;;;;;5.82;3.63;;;;;;;;;;2067172;28;20064;-66
2022/02/23 00:53:51;;;;;;;4.63;3.20;;;;;;;;;;2067020;28;20166;-67
2022/02/23 00:55:10;;;;;;;9.30;4.20;;;;;;;;;;2066836;28;20415;-67
2022/02/23 00:56:29;;;;;;;6.75;3.50;;;;;;;;;;2066865;28;20038;-66
2022/02/23 00:57:48;;;;;;;6.65;3.47;;;;;;;;;;2067823;28;20062;-66
2022/02/23 00:59:07;;;;;;;4.43;3.67;;;;;;;;;;2066010;28;20492;-66
2022/02/23 01:00:26;;;;;;;4.72;3.38;;;;;;;;;;2066565;28;20030;-66
2022/02/23 01:01:45;;;;;;;5.43;3.53;;;;;;;;;;2067751;28;20157;-67
2022/02/23 01:03:04;;;;;;;5.63;3.53;;;;;;;;;;2065752;28;20480;-66
2022/02/23 01:04:23;;;;;;;5.93;3.88;;;;;;;;;;2067576;28;20042;-67
2022/02/23 01:05:42;;;;;;;7.60;3.88;;;;;;;;;;2069001;28;20038;-67
2022/02/23 01:07:01;;;;;;;4.57;3.33;;;;;;;;;;2066674;28;20030;-66
2022/02/23 01:08:20;;;;;;;4.97;3.70;;;;;;;;;;2066862;28;20456;-67
2022/02/23 01:09:39;;;;;;;4.85;3.67;;;;;;;;;;2067308;28;20030;-67
2022/02/23 01:10:58;;;;;;;6.55;3.72;;;;;;;;;;2067793;28;20113;-67
2022/02/23 01:12:17;;;;;;;4.70;3.22;;;;;;;;;;2067706;28;20035;-67
2022/02/23 01:13:36;;;;;;;3.92;3.33;;;;;;;;;;2067055;28;20027;-67
2022/02/23 01:14:55;;;;;;;6.28;3.53;;;;;;;;;;2066711;28;20021;-66
2022/02/23 01:16:14;;;;;;;9.50;3.60;;;;;;;;;;2067766;28;20030;-67
2022/02/23 01:17:33;;;;;;;4.47;3.58;;;;;;;;;;2067813;28;20062;-67
2022/02/23 01:18:51;;;;;;;5.45;3.72;;;;;;;;;;2066061;28;20026;-67
2022/02/23 01:20:10;;;;;;;4.53;3.63;;;;;;;;;;2067007;28;20040;-66
2022/02/23 01:21:29;;;;;;;5.22;3.22;;;;;;;;;;2068510;28;20048;-67
2022/02/23 01:22:49;;;;;;;4.72;3.78;;;;;;;;;;2066429;28;20117;-66
2022/02/23 01:24:09;;;;;;;4.50;3.33;;;;;;;;;;2067607;28;20034;-67
2022/02/23 01:25:29;;;;;;;4.65;3.90;;;;;;;;;;2067072;28;20412;-67
2022/02/23 01:26:48;;;;;;;7.70;3.50;;;;;;;;;;2066724;28;20054;-67
2022/02/23 01:28:07;;;;;;;5.07;3.47;;;;;;;;;;2067386;28;20504;-67
2022/02/23 01:29:26;;;;;;;8.38;5.03;;;;;;;;;;2065057;28;20470;-67
2022/02/23 01:30:45;;;;;;;6.05;3.95;;;;;;;;;;2067607;28;20019;-67
2022/02/23 01:32:04;;;;;;;7.35;3.92;;;;;;;;;;2067051;28;20018;-66
2022/02/23 01:33:23;;;;;;;4.50;3.83;;;;;;;;;;2067322;28;20482;-67
2022/02/23 01:34:42;;;;;;;4.97;3.83;;;;;;;;;;2066465;28;20026;-67
2022/02/23 01:36:01;;;;;;;5.15;3.80;;;;;;;;;;2065964;28;20037;-67
2022/02/23 01:37:20;;;;;;;4.72;3.75;;;;;;;;;;2064613;28;20092;-67
2022/02/23 01:38:39;;;;;;;9.70;3.83;;;;;;;;;;2064961;28;20023;-66
2022/02/23 01:39:58;;;;;;;5.35;3.80;;;;;;;;;;2069774;28;20489;-67
2022/02/23 01:41:19;;;;;;;4.68;3.88;;;;;;;;;;2067253;28;20035;-66
2022/02/23 01:42:38;;;;;;;7.68;4.00;;;;;;;;;;2066982;28;20117;-67
2022/02/23 01:43:57;;;;;;;7.35;3.45;;;;;;;;;;2067947;28;20030;-67
2022/02/23 01:45:16;;;;;;;6.18;3.67;;;;;;;;;;2063223;28;20038;-67
2022/02/23 01:46:35;;;;;;;8.50;3.42;;;;;;;;;;2062895;28;20035;-67
2022/02/23 01:47:53;;;;;;;4.88;3.00;;;;;;;;;;2068030;28;20029;-67
2022/02/23 01:49:12;;;;;;;4.50;3.30;;;;;;;;;;2066650;28;20042;-68
2022/02/23 01:50:31;;;;;;;3.65;2.88;;;;;;;;;;2067522;28;20034;-67
2022/02/23 01:51:51;;;;;;;4.95;3.50;;;;;;;;;;2065907;28;20030;-68
2022/02/23 01:53:10;;;;;;;5.22;2.90;;;;;;;;;;2065810;28;20022;-67
2022/02/23 01:54:29;;;;;;;6.95;3.55;;;;;;;;;;2065555;28;20030;-66
2022/02/23 01:55:48;;;;;;;3.47;2.78;;;;;;;;;;2066588;28;20120;-68
2022/02/23 01:57:07;;;;;;;5.18;3.35;;;;;;;;;;2067657;28;20027;-68
2022/02/23 01:58:26;;;;;;;5.65;3.47;;;;;;;;;;2066889;28;20022;-68
2022/02/23 01:59:45;;;;;;;6.00;3.20;;;;;;;;;;2066205;28;20034;-68
2022/02/23 02:01:04;;;;;;;4.50;3.88;;;;;;;;;;2066527;28;20408;-67
2022/02/23 02:02:24;;;;;;;3.13;2.67;;;;;;;;;;2064404;28;20026;-67
2022/02/23 02:03:43;;;;;;;5.00;3.55;;;;;;;;;;2066116;28;20477;-68
2022/02/23 02:05:04;;;;;;;3.85;3.25;;;;;;;;;;2065325;28;20042;-67
2022/02/23 02:06:23;;;;;;;4.70;3.20;;;;;;;;;;2066491;28;20029;-68
2022/02/23 02:07:43;;;;;;;4.68;3.05;;;;;;;;;;2067349;28;20042;-67
2022/02/23 02:09:02;;;;;;;4.28;3.10;;;;;;;;;;2066709;28;20027;-67
2022/02/23 02:10:21;;;;;;;4.70;3.20;;;;;;;;;;2065981;28;20459;-67
2022/02/23 02:11:40;;;;;;;9.63;3.30;;;;;;;;;;2067452;28;20496;-66
2022/02/23 02:12:59;;;;;;;4.55;3.30;;;;;;;;;;2066759;28;20014;-66
2022/02/23 02:14:18;;;;;;;4.28;3.10;;;;;;;;;;2066203;28;20457;-65
2022/02/23 02:15:37;;;;;;;5.28;3.35;;;;;;;;;;2067345;28;20042;-67
2022/02/23 02:16:56;;;;;;;5.97;3.53;;;;;;;;;;2067663;28;20034;-68
2022/02/23 02:18:14;;;;;;;6.10;3.83;;;;;;;;;;2067408;28;20026;-67
2022/02/23 02:19:33;;;;;;;4.38;3.95;;;;;;;;;;2063864;28;20155;-67
2022/02/23 02:20:53;;;;;;;7.15;3.55;;;;;;;;;;2066938;28;20035;-67
2022/02/23 02:22:13;;;;;;;5.22;3.15;;;;;;;;;;2064965;28;20062;-67
2022/02/23 02:23:32;;;;;;;6.43;3.95;;;;;;;;;;2066966;28;20038;-67
2022/02/23 02:24:51;;;;;;;4.30;3.78;;;;;;;;;;2066204;28;20105;-67
2022/02/23 02:26:10;;;;;;;4.95;3.92;;;;;;;;;;2067101;28;20046;-67
2022/02/23 02:27:29;;;;;;;4.57;3.47;;;;;;;;;;2067096;28;20046;-67
2022/02/23 02:28:48;;;;;;;4.93;3.85;;;;;;;;;;2067920;28;20030;-67
2022/02/23 02:30:07;;;;;;;4.25;3.53;;;;;;;;;;2065101;28;20096;-67
2022/02/23 02:31:27;;;;;;;8.45;4.03;;;;;;;;;;2066416;28;20050;-67
2022/02/23 02:32:46;;;;;;;5.00;4.05;;;;;;;;;;2067248;28;20039;-66
2022/02/23 02:34:05;;;;;;;6.18;3.25;;;;;;;;;;2067504;28;20026;-67
2022/02/23 02:35:24;;;;;;;5.57;3.53;;;;;;;;;;2066823;28;20042;-67
2022/02/23 02:36:43;;;;;;;4.28;3.78;;;;;;;;;;2066940;28;20109;-67
2022/02/23 02:38:03;;;;;;;5.18;3.80;;;;;;;;;;2067318;28;20026;-67
2022/02/23 02:39:22;;;;;;;8.45;3.53;;;;;;;;;;2071148;28;20022;-67
2022/02/23 02:40:41;;;;;;;5.28;3.97;;;;;;;;;;2068969;28;20034;-67
2022/02/23 02:42:00;;;;;;;5.15;3.45;;;;;;;;;;2066839;28;20026;-67
2022/02/23 02:43:19;;;;;;;5.40;3.72;;;;;;;;;;2067763;28;20034;-67
2022/02/23 02:44:38;;;;;;;3.90;3.38;;;;;;;;;;2066728;28;20035;-67
2022/02/23 02:45:57;;;;;;;5.32;3.53;;;;;;;;;;2067215;28;20149;-67
2022/02/23 02:47:16;;;;;;;7.03;3.47;;;;;;;;;;2067790;28;20034;-67
2022/02/23 02:48:35;;;;;;;4.22;3.35;;;;;;;;;;2067883;28;20060;-67
2022/02/23 02:49:54;;;;;;;7.82;3.60;;;;;;;;;;2065387;28;20030;-67
2022/02/23 02:51:13;;;;;;;4.47;3.78;;;;;;;;;;2066875;28;20018;-67
2022/02/23 02:52:32;;;;;;;4.55;2.72;;;;;;;;;;2066512;28;20735;-67
2022/02/23 02:53:51;;;;;;;6.55;3.85;;;;;;;;;;2064480;28;20023;-67
2022/02/23 02:55:10;;;;;;;5.15;2.97;;;;;;;;;;2063887;28;20063;-67
2022/02/23 02:56:29;;;;;;;3.30;3.00;;;;;;;;;;2066949;28;20026;-67
2022/02/23 02:57:48;;;;;;;6.28;3.42;;;;;;;;;;2067273;28;20061;-67
2022/02/23 02:59:07;;;;;;;4.65;3.20;;;;;;;;;;2067509;28;20038;-67
2022/02/23 03:00:25;;;;;;;4.85;3.50;;;;;;;;;;2066151;28;20034;-66
2022/02/23 03:01:44;;;;;;;4.22;3.83;;;;;;;;;;2066642;28;20472;-66
2022/02/23 03:03:03;;;;;;;3.67;2.85;;;;;;;;;;2067069;28;20129;-67
2022/02/23 03:04:22;;;;;;;3.17;2.83;;;;;;;;;;2066968;28;20023;-67
2022/02/23 03:05:41;;;;;;;5.03;3.05;;;;;;;;;;2064259;28;20045;-67
2022/02/23 03:07:00;;;;;;;8.18;3.15;;;;;;;;;;2066492;28;20030;-66
2022/02/23 03:08:19;;;;;;;4.18;2.85;;;;;;;;;;2067431;28;20400;-66
2022/02/23 03:09:38;;;;;;;4.28;3.10;;;;;;;;;;2068032;28;20030;-66
2022/02/23 03:10:57;;;;;;;4.43;3.55;;;;;;;;;;2068563;28;20050;-66
2022/02/23 03:12:16;;;;;;;4.90;2.85;;;;;;;;;;2068543;28;20456;-66
2022/02/23 03:13:35;;;;;;;4.45;3.03;;;;;;;;;;2068967;28;20030;-66
2022/02/23 03:14:53;;;;;;;3.97;3.10;;;;;;;;;;2083759;28;20034;-66
2022/02/23 03:16:13;;;;;;;7.95;3.88;;;;;;;;;;2069399;28;20044;-66
2022/02/23 03:17:32;;;;;;;3.60;2.80;;;;;;;;;;2069771;28;20030;-65
2022/02/23 03:18:51;;;;;;;4.30;2.63;;;;;;;;;;2068383;28;20477;-66
2022/02/23 03:20:10;;;;;;;4.63;2.50;;;;;;;;;;2067794;28;20046;-66
2022/02/23 03:21:29;;;;;;;3.03;2.60;;;;;;;;;;2067702;28;20043;-66
2022/02/23 03:22:48;;;;;;;4.90;2.90;;;;;;;;;;2066950;28;20516;-66
2022/02/23 03:24:07;;;;;;;3.80;2.78;;;;;;;;;;2067704;28;20484;-67
2022/02/23 03:25:26;;;;;;;2.75;2.55;;;;;;;;;;2066850;28;20038;-66
2022/02/23 03:26:45;;;;;;;4.35;2.65;;;;;;;;;;2068872;28;20045;-65
2022/02/23 03:28:04;;;;;;;3.33;2.80;;;;;;;;;;2068093;28;20034;-66
2022/02/23 03:29:23;;;;;;;2.80;2.50;;;;;;;;;;2067800;28;20566;-66
2022/02/23 03:30:41;;;;;;;3.80;3.00;;;;;;;;;;2067868;28;20105;-66
2022/02/23 03:32:00;;;;;;;3.33;2.67;;;;;;;;;;2068345;28;20050;-66
2022/02/23 03:33:19;;;;;;;3.17;2.63;;;;;;;;;;2067721;28;20037;-66
2022/02/23 03:34:38;;;;;;;3.10;2.83;;;;;;;;;;2068307;28;20054;-67
2022/02/23 03:35:57;;;;;;;2.72;2.20;;;;;;;;;;2066875;28;20015;-66
2022/02/23 03:37:16;;;;;;;3.97;2.63;;;;;;;;;;2068051;28;20042;-66
2022/02/23 03:38:35;;;;;;;3.78;2.75;;;;;;;;;;2068749;28;20397;-67
2022/02/23 03:39:54;;;;;;;3.28;2.58;;;;;;;;;;2068210;28;20038;-66
2022/02/23 03:41:13;;;;;;;3.35;2.70;;;;;;;;;;2068000;28;20038;-66
2022/02/23 03:42:32;;;;;;;3.13;2.83;;;;;;;;;;2067802;28;20021;-67
2022/02/23 03:43:51;;;;;;;2.55;2.33;;;;;;;;;;2067133;28;20026;-67
2022/02/23 03:45:10;;;;;;;5.03;2.63;;;;;;;;;;2068584;28;20038;-66
2022/02/23 03:46:29;;;;;;;3.20;2.75;;;;;;;;;;2067054;28;20496;-66
2022/02/23 03:47:48;;;;;;;3.10;2.40;;;;;;;;;;2065861;28;20046;-66
2022/02/23 03:49:06;;;;;;;3.78;2.90;;;;;;;;;;2067911;28;20480;-67
2022/02/23 03:50:25;;;;;;;2.58;2.35;;;;;;;;;;2068063;28;20037;-66
2022/02/23 03:51:44;;;;;;;6.43;3.33;;;;;;;;;;2067124;28;20030;-66
2022/02/23 03:53:03;;;;;;;4.07;2.67;;;;;;;;;;2067658;28;20049;-66
2022/02/23 03:54:22;;;;;;;4.18;2.47;;;;;;;;;;2068023;28;20844;-66
2022/02/23 03:55:44;;;;;;;7.70;2.95;;;;;;;;;;2067459;28;20346;-66
2022/02/23 03:57:03;;;;;;;2.38;2.05;;;;;;;;;;2076722;28;20108;-66
2022/02/23 03:58:22;;;;;;;3.80;2.13;;;;;;;;;;2067957;28;20030;-66
2022/02/23 03:59:41;;;;;;;4.32;2.55;;;;;;;;;;2067494;28;20034;-67
2022/02/23 04:01:00;;;;;;;6.00;3.08;;;;;;;;;;2067215;28;20106;-65
2022/02/23 04:02:19;;;;;;;2.58;2.38;;;;;;;;;;2067096;28;20023;-66
2022/02/23 04:03:38;;;;;;;4.00;2.53;;;;;;;;;;2068025;28;20039;-66
2022/02/23 04:04:57;;;;;;;2.85;2.63;;;;;;;;;;2068355;28;20026;-67
2022/02/23 04:06:16;;;;;;;3.35;2.95;;;;;;;;;;2067574;28;20026;-66
2022/02/23 04:07:35;;;;;;;4.63;2.88;;;;;;;;;;2069060;28;20672;-66
2022/02/23 04:08:54;;;;;;;9.98;2.90;;;;;;;;;;2067953;28;20023;-66
2022/02/23 04:10:14;;;;;;;5.57;2.60;;;;;;;;;;2067601;28;20116;-66
2022/02/23 04:11:33;;;;;;;3.25;2.63;;;;;;;;;;2066996;28;20400;-66
2022/02/23 04:12:52;;;;;;;6.32;2.88;;;;;;;;;;2067717;28;20034;-67
2022/02/23 04:14:11;;;;;;;2.88;2.60;;;;;;;;;;2068129;28;20141;-66
2022/02/23 04:15:30;;;;;;;3.38;2.40;;;;;;;;;;2067670;28;20027;-67
2022/02/23 04:16:49;;;;;;;3.33;2.30;;;;;;;;;;2067247;28;20022;-67
2022/02/23 04:18:08;;;;;;;3.30;2.55;;;;;;;;;;2067682;28;20026;-67
2022/02/23 04:19:27;;;;;;;3.13;2.25;;;;;;;;;;2067191;28;20034;-67
2022/02/23 04:20:46;;;;;;;3.58;2.28;;;;;;;;;;2070183;28;20496;-66
2022/02/23 04:22:06;;;;;;;5.63;2.65;;;;;;;;;;2068604;28;20061;-68
2022/02/23 04:23:24;;;;;;;5.10;2.50;;;;;;;;;;2068836;28;20511;-67
2022/02/23 04:24:43;;;;;;;4.88;2.20;;;;;;;;;;2066831;28;20030;-66
2022/02/23 04:26:03;;;;;;;9.20;3.10;;;;;;;;;;2067856;28;20504;-67
2022/02/23 04:27:21;;;;;;;3.35;2.60;;;;;;;;;;2067818;28;20038;-66
2022/02/23 04:28:40;;;;;;;3.47;2.58;;;;;;;;;;2067338;28;20108;-67
2022/02/23 04:29:59;;;;;;;3.92;2.55;;;;;;;;;;2067087;28;20053;-68
2022/02/23 04:31:19;;;;;;;3.20;2.90;;;;;;;;;;2067145;28;20400;-65
2022/02/23 04:32:38;;;;;;;3.83;3.08;;;;;;;;;;2066496;28;20507;-66
2022/02/23 04:33:58;;;;;;;5.20;2.92;;;;;;;;;;2068591;28;20151;-66
2022/02/23 04:35:17;;;;;;;5.32;2.97;;;;;;;;;;2067102;28;20030;-67
2022/02/23 04:36:36;;;;;;;4.25;2.92;;;;;;;;;;2067502;28;20035;-66
2022/02/23 04:37:55;;;;;;;3.30;2.47;;;;;;;;;;2074695;28;20411;-67
2022/02/23 04:39:14;;;;;;;5.25;2.67;;;;;;;;;;2069928;28;20034;-67
2022/02/23 04:40:33;;;;;;;5.93;2.50;;;;;;;;;;2068207;28;20034;-67
2022/02/23 04:41:52;;;;;;;3.70;2.75;;;;;;;;;;2067767;28;20587;-67
2022/02/23 04:43:11;;;;;;;3.50;2.53;;;;;;;;;;2067932;28;20034;-66
2022/02/23 04:44:30;;;;;;;6.38;2.83;;;;;;;;;;2067305;28;20117;-66
2022/02/23 04:45:50;;;;;;;3.05;2.80;;;;;;;;;;2067199;28;20034;-67
2022/02/23 04:47:09;;;;;;;2.67;2.42;;;;;;;;;;2063434;28;20030;-67
2022/02/23 04:48:28;;;;;;;6.80;3.08;;;;;;;;;;2067918;28;20034;-67
2022/02/23 04:49:47;;;;;;;2.53;2.15;;;;;;;;;;2067021;28;20060;-66
2022/02/23 04:51:06;;;;;;;5.88;2.88;;;;;;;;;;2067026;28;20396;-66
2022/02/23 04:52:25;;;;;;;3.65;2.60;;;;;;;;;;2066803;28;20026;-66
2022/02/23 04:53:44;;;;;;;3.75;2.42;;;;;;;;;;2068334;28;20038;-66
2022/02/23 04:55:02;;;;;;;4.15;2.60;;;;;;;;;;2069095;28;20030;-66
2022/02/23 04:56:21;;;;;;;3.45;2.75;;;;;;;;;;2067354;28;20109;-66
2022/02/23 04:57:40;;;;;;;3.20;2.67;;;;;;;;;;2067013;28;20125;-67
2022/02/23 04:58:59;;;;;;;3.28;2.70;;;;;;;;;;2066695;28;20416;-66
2022/02/23 05:00:18;;;;;;;4.50;2.58;;;;;;;;;;2065723;28;20022;-67
2022/02/23 05:01:37;;;;;;;2.92;2.60;;;;;;;;;;2067287;28;20026;-68
2022/02/23 05:02:56;;;;;;;5.70;3.13;;;;;;;;;;2065787;28;20484;-66
2022/02/23 05:04:15;;;;;;;4.38;2.63;;;;;;;;;;2067520;28;20033;-68
2022/02/23 05:05:35;;;;;;;3.22;2.38;;;;;;;;;;2066797;28;20030;-68
2022/02/23 05:06:54;;;;;;;3.22;2.47;;;;;;;;;;2067533;28;20388;-66
2022/02/23 05:08:13;;;;;;;3.17;2.85;;;;;;;;;;2067906;28;20027;-67
2022/02/23 05:09:32;;;;;;;3.78;2.53;;;;;;;;;;2067862;28;20038;-67
2022/02/23 05:10:51;;;;;;;4.40;2.70;;;;;;;;;;2067033;28;20065;-67
2022/02/23 05:12:10;;;;;;;3.85;2.95;;;;;;;;;;2067635;28;20029;-70
2022/02/23 05:13:32;;;;;;;3.03;2.72;;;;;;;;;;2067468;28;20042;-68
2022/02/23 05:14:51;;;;;;;3.45;2.28;;;;;;;;;;2067847;28;20019;-66
2022/02/23 05:16:11;;;;;;;4.65;2.92;;;;;;;;;;2064963;28;20034;-68
2022/02/23 05:17:29;;;;;;;3.08;2.70;;;;;;;;;;2067203;28;20060;-67
2022/02/23 05:18:49;;;;;;;3.10;2.80;;;;;;;;;;2067502;28;20030;-66
2022/02/23 05:20:08;;;;;;;6.05;2.78;;;;;;;;;;2067857;28;20030;-67
2022/02/23 05:21:27;;;;;;;5.43;2.67;;;;;;;;;;2067353;28;20066;-67
2022/02/23 05:22:48;;;;;;;5.05;2.85;;;;;;;;;;2065960;28;20042;-66
2022/02/23 05:24:06;;;;;;;3.35;2.67;;;;;;;;;;2067484;28;20035;-67
2022/02/23 05:25:26;;;;;;;3.00;2.53;;;;;;;;;;2064886;28;20034;-67
2022/02/23 05:26:45;;;;;;;4.93;2.80;;;;;;;;;;2066795;28;20050;-67
2022/02/23 05:28:04;;;;;;;2.72;2.45;;;;;;;;;;2065954;28;20038;-67
2022/02/23 05:29:24;;;;;;;4.80;3.00;;;;;;;;;;2067819;28;20034;-67
2022/02/23 05:30:42;;;;;;;2.80;2.60;;;;;;;;;;2067531;28;20030;-67
2022/02/23 05:32:02;;;;;;;6.90;3.30;;;;;;;;;;2067563;28;20030;-67
2022/02/23 05:33:20;;;;;;;4.22;2.80;;;;;;;;;;2066739;28;20030;-67
2022/02/23 05:34:40;;;;;;;7.15;2.70;;;;;;;;;;2063730;28;20117;-67
2022/02/23 05:36:01;;;;;;;5.07;2.95;;;;;;;;;;2067142;28;20109;-67
2022/02/23 05:37:20;;;;;;;4.65;2.78;;;;;;;;;;2067853;28;20030;-67
2022/02/23 05:38:39;;;;;;;4.40;2.75;;;;;;;;;;2067630;28;20034;-68
2022/02/23 05:39:58;;;;;;;5.50;2.70;;;;;;;;;;2067050;28;20027;-67
2022/02/23 05:41:17;;;;;;;2.70;2.38;;;;;;;;;;2067620;28;20083;-68
2022/02/23 05:42:36;;;;;;;3.42;2.92;;;;;;;;;;2067811;28;20039;-67
2022/02/23 05:43:55;;;;;;;4.80;3.05;;;;;;;;;;2063224;28;20723;-67
2022/02/23 05:45:14;;;;;;;4.15;2.95;;;;;;;;;;2067522;28;20026;-67
2022/02/23 05:46:33;;;;;;;5.43;2.80;;;;;;;;;;2067670;28;20392;-67
2022/02/23 05:47:52;;;;;;;5.43;3.10;;;;;;;;;;2066602;28;20037;-67
2022/02/23 05:49:11;;;;;;;4.43;2.80;;;;;;;;;;2066851;28;20033;-67
2022/02/23 05:50:29;;;;;;;4.60;2.95;;;;;;;;;;2066187;28;20034;-67
2022/02/23 05:51:49;;;;;;;5.43;2.65;;;;;;;;;;2066405;28;20038;-67
2022/02/23 05:53:07;;;;;;;5.85;3.00;;;;;;;;;;2066354;28;20031;-67
2022/02/23 05:54:26;;;;;;;4.78;2.38;;;;;;;;;;2064942;28;20033;-68
2022/02/23 05:55:45;;;;;;;4.60;2.90;;;;;;;;;;2066731;28;20449;-67
2022/02/23 05:57:04;;;;;;;4.28;2.70;;;;;;;;;;2067660;28;20035;-67
2022/02/23 05:58:24;;;;;;;2.78;2.53;;;;;;;;;;2066322;28;20026;-67
2022/02/23 05:59:43;;;;;;;5.43;2.40;;;;;;;;;;2067308;28;20065;-68
2022/02/23 06:01:02;;;;;;;5.88;2.80;;;;;;;;;;2066391;28;20033;-68
2022/02/23 06:02:21;;;;;;;2.50;2.10;;;;;;;;;;2064868;28;20038;-68
2022/02/23 06:03:40;;;;;;;2.35;2.13;;;;;;;;;;2066019;28;20030;-66
2022/02/23 06:04:59;;;;;;;5.18;2.40;;;;;;;;;;2066651;28;20038;-68
2022/02/23 06:06:18;;;;;;;4.15;2.03;;;;;;;;;;2065815;28;20503;-69
2022/02/23 06:07:37;;;;;;;2.50;2.05;;;;;;;;;;2066688;28;20034;-68
2022/02/23 06:08:56;;;;;;;5.78;2.50;;;;;;;;;;2065354;28;20030;-68
2022/02/23 06:10:15;;;;;;;4.22;2.45;;;;;;;;;;2066816;28;20026;-69
2022/02/23 06:11:36;;;;;;;2.72;2.35;;;;;;;;;;2065931;28;20050;-69
2022/02/23 06:12:55;;;;;;;3.67;2.20;;;;;;;;;;2065330;28;20034;-68
2022/02/23 06:14:13;;;;;;;4.57;2.25;;;;;;;;;;2063536;28;20035;-68
2022/02/23 06:15:32;;;;;;;4.72;2.58;;;;;;;;;;2069272;28;20612;-68
2022/02/23 06:16:51;;;;;;;4.78;2.10;;;;;;;;;;2068495;28;20030;-68
2022/02/23 06:18:10;;;;;;;1.95;1.70;;;;;;;;;;2067481;28;20022;-67
2022/02/23 06:19:29;;;;;;;6.35;2.30;;;;;;;;;;2065784;28;20034;-68
2022/02/23 06:20:48;;;;;;;2.22;1.85;;;;;;;;;;2108101;28;20027;-69
2022/02/23 06:22:07;;;;;;;2.45;2.17;;;;;;;;;;2078905;28;20030;-69
2022/02/23 06:23:26;;;;;;;4.45;2.13;;;;;;;;;;2067641;28;20065;-69
2022/02/23 06:24:45;;;;;;;3.85;2.13;;;;;;;;;;2067845;28;20030;-68
2022/02/23 06:26:05;;;;;;;2.33;2.10;;;;;;;;;;2068303;28;20069;-69
2022/02/23 06:27:24;;;;;;;3.83;2.38;;;;;;;;;;2067377;28;20035;-69
2022/02/23 06:28:44;;;;;;;2.65;2.28;;;;;;;;;;2065704;28;20121;-69
2022/02/23 06:30:03;;;;;;;3.53;2.40;;;;;;;;;;2070068;28;20030;-69
2022/02/23 06:31:22;;;;;;;2.60;2.40;;;;;;;;;;2066469;28;20059;-68
2022/02/23 06:32:41;;;;;;;3.60;2.60;;;;;;;;;;2066289;28;20034;-69
2022/02/23 06:34:00;;;;;;;5.05;2.10;;;;;;;;;;2067138;28;20034;-69
2022/02/23 06:35:18;;;;;;;5.57;2.10;;;;;;;;;;2066994;28;20392;-69
2022/02/23 06:36:38;;;;;;;3.00;2.20;;;;;;;;;;2067129;28;20030;-68
2022/02/23 06:37:57;;;;;;;4.05;2.30;;;;;;;;;;2065058;28;20026;-68
2022/02/23 06:39:18;;;;;;;4.38;2.28;;;;;;;;;;2064174;28;20026;-68
2022/02/23 06:40:37;;;;;;;2.42;2.22;;;;;;;;;;2066186;28;20038;-67
2022/02/23 06:41:55;;;;;;;3.38;1.98;;;;;;;;;;2068106;28;20069;-67
2022/02/23 06:43:15;;;;;;;5.20;2.20;;;;;;;;;;2066241;28;20038;-70
2022/02/23 06:44:34;;;;;;;3.83;1.90;;;;;;;;;;2067713;28;20031;-67
2022/02/23 06:45:53;;;;;;;4.35;2.50;;;;;;;;;;2067519;28;20102;-70
2022/02/23 06:47:12;;;;;;;11.13;2.47;;;;;;;;;;2065019;28;20030;-68
2022/02/23 06:48:32;;;;;;;2.20;1.85;;;;;;;;;;2066876;28;20066;-68
2022/02/23 06:49:50;;;;;;;9.10;2.45;;;;;;;;;;2066452;28;20035;-67
2022/02/23 06:51:15;;;;;;;4.65;2.17;;;;;;;;;;2069130;28;20113;-67
2022/02/23 06:52:34;;;;;;;7.28;2.20;;;;;;;;;;2068191;28;20101;-68
2022/02/23 06:53:53;;;;;;;3.58;2.17;;;;;;;;;;2067066;28;20388;-67
2022/02/23 06:55:15;;;;;;;3.55;2.42;;;;;;;;;;2068003;28;20034;-67
2022/02/23 06:56:34;;;;;;;4.80;2.10;;;;;;;;;;2070583;28;20022;-67
2022/02/23 06:57:53;;;;;;;2.50;2.13;;;;;;;;;;2071796;28;20428;-67
2022/02/23 06:59:11;;;;;;;3.95;2.30;;;;;;;;;;2068290;28;20018;-67
2022/02/23 07:00:30;;;;;;;6.95;2.03;;;;;;;;;;2068837;28;20042;-67
2022/02/23 07:01:49;;;;;;;2.95;1.83;;;;;;;;;;2067881;28;20026;-67
2022/02/23 07:03:08;;;;;;;2.42;2.13;;;;;;;;;;2068956;28;20072;-67
2022/02/23 07:04:27;;;;;;;5.90;1.90;;;;;;;;;;2068209;28;20038;-68
2022/02/23 07:05:46;;;;;;;2.60;1.98;;;;;;;;;;2070103;28;20042;-67
2022/02/23 07:07:05;;;;;;;6.95;2.10;;;;;;;;;;2068200;28;20145;-68
2022/02/23 07:08:24;;;;;;;6.20;2.50;;;;;;;;;;2072679;28;20034;-68
2022/02/23 07:09:43;;;;;;;4.50;2.35;;;;;;;;;;2067470;28;20038;-67
2022/02/23 07:11:01;;;;;;;4.05;2.47;;;;;;;;;;2068710;28;20515;-68
2022/02/23 07:12:20;;;;;;;6.07;2.40;;;;;;;;;;2067136;28;20066;-69
2022/02/23 07:13:39;;;;;;;4.80;2.30;;;;;;;;;;2066901;28;20106;-67
2022/02/23 07:14:58;;;;;;;3.25;2.45;;;;;;;;;;2067591;28;20109;-69
2022/02/23 07:16:19;;;;;;;3.05;2.63;;;;;;;;;;2068481;28;20035;-67
2022/02/23 07:17:40;;;;;;;4.60;2.80;;;;;;;;;;2067876;28;20031;-68
2022/02/23 07:18:59;;;;;;;3.20;2.88;;;;;;;;;;2067961;28;20026;-67
2022/02/23 07:20:18;;;;;;;3.47;2.78;;;;;;;;;;2067989;28;20031;-68
2022/02/23 07:21:38;;;;;;;3.50;2.63;;;;;;;;;;2068313;28;20059;-68
2022/02/23 07:22:57;;;;;;;4.50;3.13;;;;;;;;;;2076606;28;20065;-68
2022/02/23 07:24:16;;;;;;;3.58;2.42;;;;;;;;;;2071572;28;20066;-68
2022/02/23 07:25:35;;;;;;;3.75;2.45;;;;;;;;;;2068148;28;20038;-68
2022/02/23 07:26:54;;;;;;;3.05;2.00;;;;;;;;;;2068222;28;20353;-68
2022/02/23 07:28:13;;;;;;;4.07;2.38;;;;;;;;;;2067993;28;20038;-68
2022/02/23 07:29:32;;;;;;;3.03;2.70;;;;;;;;;;2067897;28;20519;-68
2022/02/23 07:30:51;;;;;;;3.05;2.50;;;;;;;;;;2067137;28;20034;-67
2022/02/23 07:32:10;;;;;;;3.80;2.30;;;;;;;;;;2069036;28;20401;-68
2022/02/23 07:33:29;;;;;;;4.07;2.90;;;;;;;;;;2066854;28;20034;-68
2022/02/23 07:34:50;;;;;;;2.22;2.03;;;;;;;;;;2071199;28;20396;-68
2022/02/23 07:36:09;;;;;;;3.10;2.08;;;;;;;;;;2065363;28;20143;-68
2022/02/23 07:37:28;;;;;;;3.33;2.10;;;;;;;;;;2067404;28;20034;-68
2022/02/23 07:38:49;;;;;;;2.50;2.00;;;;;;;;;;2068253;28;20050;-68
2022/02/23 07:40:09;;;;;;;5.45;2.30;;;;;;;;;;2066916;28;20401;-67
2022/02/23 07:41:29;;;;;;;2.75;2.30;;;;;;;;;;2069250;28;20034;-68
2022/02/23 07:42:49;;;;;;;3.30;2.10;;;;;;;;;;2063111;28;20461;-68
2022/02/23 07:44:08;;;;;;;2.63;2.42;;;;;;;;;;2064694;28;20041;-67
2022/02/23 07:45:27;;;;;;;7.00;2.70;;;;;;;;;;2067778;28;20031;-66
2022/02/23 07:46:46;;;;;;;7.07;2.92;;;;;;;;;;2066889;28;20418;-68
2022/02/23 07:48:05;;;;;;;8.00;3.08;;;;;;;;;;2066700;28;20121;-67
2022/02/23 07:49:26;;;;;;;6.13;2.90;;;;;;;;;;2067370;28;20450;-68
2022/02/23 07:50:44;;;;;;;3.30;2.88;;;;;;;;;;2067489;28;20030;-67
2022/02/23 07:52:04;;;;;;;5.97;3.08;;;;;;;;;;2067965;28;20026;-68
2022/02/23 07:53:23;;;;;;;5.50;2.60;;;;;;;;;;2066552;28;20402;-67
2022/02/23 07:54:42;;;;;;;3.70;2.80;;;;;;;;;;2067275;28;20034;-67